Pride Of Bruges — PGJW — position and weather

sailwx.info

Track history (hours):
 
Tides and Currents Weather Stations Pressure Air Temp Water Temp Dewpoint Dewpoint Depression Visibility Wind Speed Wind Dir Waves Ship Positions

Pride Of Bruges

Operator: P&O Ferries

Last reported at 2017-Jan-23 16:31 UTC. Time now 2017-Jan-23 16:47 UTC.
Position N 51°20' E 003°11'.

Length 180 m; draft 5.7 m.

Type: Ship (hazmat cat B). MMSI: 244387000.

Date/timePositionNaut miles runAvg speedWind from/ knotsBaromVisibWave heightAir tempDewpointWater temp
2017-Jan-23 16:31N 51°20' E 003°11'0 0.0
2017-Jan-23 15:33N 51°20' E 003°11'0 0.0
2017-Jan-23 14:33N 51°20' E 003°11'0 0.0
2017-Jan-23 13:32N 51°20' E 003°11'0 0.0
2017-Jan-23 12:32N 51°20' E 003°11'0 0.0
2017-Jan-23 11:32N 51°20' E 003°11'0 0.0
2017-Jan-23 10:31N 51°20' E 003°11'0 0.0
2017-Jan-23 09:31N 51°20' E 003°11'0 0.0
2017-Jan-23 08:33N 51°20' E 003°11'0 0.0
2017-Jan-23 07:33N 51°20' E 003°11'0 0.0
2017-Jan-23 06:32N 51°20' E 003°11'0 0.0
2017-Jan-23 05:32N 51°20' E 003°11'0 0.0
2017-Jan-23 04:32N 51°20' E 003°11'0 0.0
2017-Jan-23 03:31N 51°20' E 003°11'0 0.0
2017-Jan-23 02:31N 51°20' E 003°11'0 0.0
2017-Jan-23 01:33N 51°20' E 003°11'0 0.0
2017-Jan-23 00:33N 51°20' E 003°11'0 0.0
2017-Jan-22 23:32N 51°20' E 003°11'0 0.0
2017-Jan-22 22:32N 51°20' E 003°11'0 0.0
2017-Jan-22 21:31N 51°20' E 003°11'0 0.0
2017-Jan-22 20:31N 51°20' E 003°11'0 0.0
2017-Jan-22 19:31N 51°20' E 003°11'0 0.0
2017-Jan-22 18:33N 51°20' E 003°11'0 0.0
2017-Jan-22 17:30N 51°20' E 003°11'0 0.0
2017-Jan-22 16:33N 51°20' E 003°11'8 8.0
2017-Jan-22 15:34N 51°25' E 003°01'1616.3
2017-Jan-22 14:33N 51°41' E 003°08'1616.3
2017-Jan-22 13:33N 51°55' E 003°20'1413.5
2017-Jan-22 12:33N 52°03' E 003°39'1414.0
2017-Jan-22 11:34N 52°00' E 004°01'5 5.3
2017-Jan-22 10:32N 51°57' E 004°08'0 0.0
2017-Jan-22 09:31N 51°57' E 004°08'0 0.0
2017-Jan-22 08:33N 51°57' E 004°08'6 6.2
2017-Jan-22 07:33N 51°60' E 003°59'1010.3
2017-Jan-22 06:33N 52°03' E 003°43'1515.3
2017-Jan-22 05:33N 52°10' E 003°22'3115.1
2017-Jan-22 03:29N 52°29' E 002°41'1415.3
2017-Jan-22 02:33N 52°37' E 002°22'1515.5
2017-Jan-22 01:33N 52°45' E 001°60'1515.3
2017-Jan-22 00:33N 52°54' E 001°39'1515.2
2017-Jan-21 23:33N 52°60' E 001°16'4615.4
2017-Jan-21 20:33N 53°31' E 000°18'1514.6
2017-Jan-21 19:33N 53°36' W 000°04'1110.8
2017-Jan-21 18:33N 53°44' W 000°16'0 0.1
2017-Jan-21 17:32N 53°45' W 000°16'0 0.0
2017-Jan-21 16:31N 53°45' W 000°16'0 0.0
2017-Jan-21 15:33N 53°45' W 000°16'0 0.0
2017-Jan-21 14:33N 53°45' W 000°16'0 0.0
2017-Jan-21 13:32N 53°45' W 000°16'0 0.0
2017-Jan-21 12:32N 53°45' W 000°16'0 0.0
2017-Jan-21 11:31N 53°45' W 000°16'0 0.0
2017-Jan-21 10:31N 53°45' W 000°16'0 0.0
2017-Jan-21 09:33N 53°45' W 000°16'0 0.0
2017-Jan-21 08:33N 53°45' W 000°16'0 0.2
2017-Jan-21 07:33N 53°44' W 000°17'1111.2
2017-Jan-21 06:33N 53°36' W 000°04'1514.7
2017-Jan-21 05:32N 53°31' E 000°20'2015.2
2017-Jan-21 04:13N 53°23' E 000°51'1616.2
2017-Jan-21 03:13N 53°14' E 001°13'1015.4
2017-Jan-21 02:34N 53°07' E 001°26'1515.4
2017-Jan-21 01:34N 52°59' E 001°48'1616.3
2017-Jan-21 00:33N 52°48' E 002°09'1717.1
2017-Jan-20 23:33N 52°38' E 002°30'1817.6
2017-Jan-20 22:34N 52°27' E 002°53'1817.8
2017-Jan-20 21:33N 52°16' E 003°16'1817.8
2017-Jan-20 20:34N 52°06' E 003°40'1515.1
2017-Jan-20 19:33N 51°60' E 004°03'4 4.4
2017-Jan-20 18:32N 51°57' E 004°08'0 0.0
2017-Jan-20 17:32N 51°57' E 004°08'0 0.0
2017-Jan-20 16:32N 51°57' E 004°08'0 0.0
2017-Jan-20 15:31N 51°57' E 004°08'0 0.0
2017-Jan-20 14:33N 51°57' E 004°08'0 0.0
2017-Jan-20 13:30N 51°57' E 004°08'0 0.0
2017-Jan-20 12:33N 51°57' E 004°08'0 0.0
2017-Jan-20 11:32N 51°57' E 004°08'0 0.0
2017-Jan-20 10:32N 51°57' E 004°08'0 0.0
2017-Jan-20 09:31N 51°57' E 004°08'0 0.0
2017-Jan-20 08:31N 51°57' E 004°08'0 0.0
2017-Jan-20 07:33N 51°57' E 004°08'9 9.2
2017-Jan-20 06:33N 52°00' E 003°54'1413.7
2017-Jan-20 05:34N 52°06' E 003°34'1615.8
2017-Jan-20 04:33N 52°14' E 003°12'1616.3
2017-Jan-20 03:33N 52°23' E 002°49'1717.1
2017-Jan-20 02:33N 52°33' E 002°27'1918.8
2017-Jan-20 01:33N 52°45' E 002°02'1919.5
2017-Jan-20 00:33N 52°54' E 001°34'1919.4
2017-Jan-19 23:34N 53°03' E 001°05'3718.6
2017-Jan-19 21:33N 53°29' E 000°21'1616.3
2017-Jan-19 20:33N 53°36' W 000°03'1111.4
2017-Jan-19 19:33N 53°44' W 000°16'0 0.1
2017-Jan-19 18:32N 53°45' W 000°16'0 0.0
2017-Jan-19 17:31N 53°45' W 000°16'0 0.0
2017-Jan-19 16:31N 53°45' W 000°16'0 0.0
2017-Jan-19 15:33N 53°45' W 000°16'0 0.0
2017-Jan-19 14:33N 53°45' W 000°16'0 0.0
2017-Jan-19 13:33N 53°45' W 000°16'0 0.0
2017-Jan-19 12:13N 53°45' W 000°16'0 0.0
2017-Jan-19 11:31N 53°45' W 000°16'0 0.0
2017-Jan-19 10:32N 53°45' W 000°16'0 0.0
2017-Jan-19 09:32N 53°45' W 000°16'0 0.0
2017-Jan-19 08:32N 53°45' W 000°16'1 1.4
2017-Jan-19 07:34N 53°43' W 000°15'1414.1
2017-Jan-19 06:33N 53°35' E 000°04'4615.1
2017-Jan-19 03:32N 53°15' E 001°13'1717.2
2017-Jan-19 02:33N 53°05' E 001°35'1716.8
2017-Jan-19 01:33N 52°55' E 001°57'1616.0
2017-Jan-19 00:33N 52°43' E 002°16'1916.7
2017-Jan-18 23:23N 52°32' E 002°42'1417.3
2017-Jan-18 22:33N 52°23' E 003°00'1817.7
2017-Jan-18 21:33N 52°12' E 003°23'1717.4
2017-Jan-18 20:34N 52°04' E 003°48'1413.7
2017-Jan-18 19:34N 51°58' E 004°08'1 1.0
2017-Jan-18 18:33N 51°57' E 004°08'0 0.0
2017-Jan-18 17:32N 51°57' E 004°08'0 0.0
2017-Jan-18 16:32N 51°57' E 004°08'0 0.0
2017-Jan-18 15:32N 51°57' E 004°08'0 0.0
2017-Jan-18 14:31N 51°57' E 004°08'0 0.0
2017-Jan-18 13:33N 51°57' E 004°08'0 0.0
2017-Jan-18 12:33N 51°57' E 004°08'0 0.0
2017-Jan-18 11:33N 51°57' E 004°08'0 0.0
2017-Jan-18 10:33N 51°57' E 004°08'0 0.0
2017-Jan-18 09:32N 51°57' E 004°08'0 0.0
2017-Jan-18 08:32N 51°57' E 004°08'0 0.0
2017-Jan-18 07:33N 51°57' E 004°08'10 9.6
2017-Jan-18 06:34N 52°01' E 003°54'1615.7
2017-Jan-18 05:33N 52°07' E 003°30'5516.2
2017-Jan-18 02:08N 52°40' E 002°17'1016.9
2017-Jan-18 01:33N 52°45' E 002°03'1717.3
2017-Jan-18 00:34N 52°52' E 001°37'1817.9
2017-Jan-17 23:33N 53°01' E 001°11'1717.3
2017-Jan-17 22:33N 53°12' E 000°49'3215.9
2017-Jan-17 20:33N 53°33' E 000°09'1413.7
2017-Jan-17 19:33N 53°39' W 000°12'6 5.9
2017-Jan-17 18:34N 53°44' W 000°16'0 0.1
2017-Jan-17 17:32N 53°45' W 000°16'0 0.0
2017-Jan-17 16:32N 53°45' W 000°16'0 0.0
2017-Jan-17 15:32N 53°45' W 000°16'0 0.0
2017-Jan-17 14:31N 53°45' W 000°16'0 0.0
2017-Jan-17 13:31N 53°45' W 000°16'0 0.0
2017-Jan-17 12:33N 53°45' W 000°16'0 0.0
2017-Jan-17 11:33N 53°45' W 000°16'0 0.0
2017-Jan-17 10:32N 53°45' W 000°16'0 0.0
2017-Jan-17 09:32N 53°45' W 000°16'0 0.0
2017-Jan-17 08:33N 53°45' W 000°16'0 0.2
2017-Jan-17 07:33N 53°44' W 000°17'1313.5
2017-Jan-17 06:34N 53°35' E 000°00'4815.8
2017-Jan-17 03:30N 53°12' E 001°12'1718.3
2017-Jan-17 02:33N 53°00' E 001°31'1717.1
2017-Jan-17 01:33N 52°49' E 001°53'4815.8
2017-Jan-16 22:31N 52°22' E 002°59'1616.0
2017-Jan-16 21:31N 52°13' E 003°21'1515.4
2017-Jan-16 20:33N 52°06' E 003°41'1616.3
2017-Jan-16 19:33N 51°59' E 004°05'3 2.5
2017-Jan-16 18:31N 51°57' E 004°08'0 0.0
2017-Jan-16 17:34N 51°57' E 004°08'0 0.0
2017-Jan-16 16:33N 51°57' E 004°08'0 0.0
2017-Jan-16 15:33N 51°57' E 004°08'0 0.0
2017-Jan-16 14:32N 51°57' E 004°08'0 0.0
2017-Jan-16 13:32N 51°57' E 004°08'0 0.0
2017-Jan-16 12:32N 51°57' E 004°08'0 0.0
2017-Jan-16 11:31N 51°57' E 004°08'0 0.0
2017-Jan-16 10:34N 51°57' E 004°08'0 0.0
2017-Jan-16 09:33N 51°57' E 004°08'0 0.0
2017-Jan-16 08:33N 51°57' E 004°08'0 0.0
2017-Jan-16 07:33N 51°57' E 004°08'1111.1
2017-Jan-16 06:34N 52°01' E 003°51'7416.5
2017-Jan-16 02:04N 52°45' E 002°14'917.3
2017-Jan-16 01:33N 52°51' E 002°03'1717.2
2017-Jan-16 00:34N 53°02' E 001°40'1817.8
2017-Jan-15 23:33N 53°12' E 001°16'3816.1
2017-Jan-15 21:12N 53°30' E 000°20'1117.0
2017-Jan-15 20:33N 53°35' E 000°03'1414.2
2017-Jan-15 19:33N 53°43' W 000°15'1 1.3
2017-Jan-15 18:33N 53°45' W 000°16'0 0.0
2017-Jan-15 17:33N 53°45' W 000°16'0 0.0
2017-Jan-15 16:33N 53°45' W 000°16'0 0.0
2017-Jan-15 15:33N 53°45' W 000°16'0 0.0
2017-Jan-15 14:32N 53°45' W 000°16'0 0.0
2017-Jan-15 13:32N 53°45' W 000°16'0 0.0
2017-Jan-15 12:25N 53°45' W 000°16'0 0.0
2017-Jan-15 11:31N 53°45' W 000°16'0 0.0
2017-Jan-15 10:33N 53°45' W 000°16'0 0.0
2017-Jan-15 09:33N 53°45' W 000°16'0 0.2
2017-Jan-15 08:33N 53°44' W 000°17'3 3.3
2017-Jan-15 07:34N 53°42' W 000°14'1313.0
2017-Jan-15 06:33N 53°34' E 000°05'4414.2
2017-Jan-15 03:29N 53°14' E 001°09'1617.7
2017-Jan-15 02:33N 53°01' E 001°27'1918.9
2017-Jan-15 01:34N 52°49' E 001°51'7414.7
2017-Jan-14 20:31N 52°09' E 003°33'1313.8
2017-Jan-14 19:33N 52°04' E 003°53'1111.1
2017-Jan-14 18:33N 51°57' E 004°08'1 0.6
2017-Jan-14 17:33N 51°57' E 004°08'0 0.0
2017-Jan-14 16:32N 51°57' E 004°08'0 0.0
2017-Jan-14 15:31N 51°57' E 004°08'0 0.0
2017-Jan-14 14:31N 51°57' E 004°08'0 0.0
2017-Jan-14 13:31N 51°57' E 004°08'0 0.0
2017-Jan-14 12:33N 51°57' E 004°08'0 0.0
2017-Jan-14 11:33N 51°57' E 004°08'0 0.0
2017-Jan-14 10:33N 51°57' E 004°08'0 0.0
2017-Jan-14 09:32N 51°57' E 004°08'0 0.0
2017-Jan-14 08:31N 51°57' E 004°08'1 1.2
2017-Jan-14 07:33N 51°58' E 004°08'1212.3
2017-Jan-14 06:33N 52°02' E 003°49'10214.6
2017-Jan-13 23:33N 52°56' E 001°27'1616.0
2017-Jan-13 22:33N 53°04' E 001°03'3716.5
2017-Jan-13 20:20N 53°30' E 000°20'1215.0
2017-Jan-13 19:34N 53°35' E 000°02'1514.6
2017-Jan-13 18:33N 53°44' W 000°17'0 0.2
2017-Jan-13 17:32N 53°45' W 000°16'0 0.0
2017-Jan-13 16:31N 53°45' W 000°16'  
Track history (hours):
 
Tides and Currents Weather Stations Pressure Air Temp Water Temp Dewpoint Dewpoint Depression Visibility Wind Speed Wind Dir Waves Ship Positions

Pride Of Bruges

Operator: P&O Ferries

Last reported at 2017-Jan-23 16:31 UTC. Time now 2017-Jan-23 16:47 UTC.
Position N 51°20' E 003°11'.

Length 180 m; draft 5.7 m.

Type: Ship (hazmat cat B). MMSI: 244387000.

Date/timePositionNaut miles runAvg speedWind from/ knotsBaromVisibWave heightAir tempDewpointWater temp
2017-Jan-23 16:31N 51°20' E 003°11'0 0.0
2017-Jan-23 15:33N 51°20' E 003°11'0 0.0
2017-Jan-23 14:33N 51°20' E 003°11'0 0.0
2017-Jan-23 13:32N 51°20' E 003°11'0 0.0
2017-Jan-23 12:32N 51°20' E 003°11'0 0.0
2017-Jan-23 11:32N 51°20' E 003°11'0 0.0
2017-Jan-23 10:31N 51°20' E 003°11'0 0.0
2017-Jan-23 09:31N 51°20' E 003°11'0 0.0
2017-Jan-23 08:33N 51°20' E 003°11'0 0.0
2017-Jan-23 07:33N 51°20' E 003°11'0 0.0
2017-Jan-23 06:32N 51°20' E 003°11'0 0.0
2017-Jan-23 05:32N 51°20' E 003°11'0 0.0
2017-Jan-23 04:32N 51°20' E 003°11'0 0.0
2017-Jan-23 03:31N 51°20' E 003°11'0 0.0
2017-Jan-23 02:31N 51°20' E 003°11'0 0.0
2017-Jan-23 01:33N 51°20' E 003°11'0 0.0
2017-Jan-23 00:33N 51°20' E 003°11'0 0.0
2017-Jan-22 23:32N 51°20' E 003°11'0 0.0
2017-Jan-22 22:32N 51°20' E 003°11'0 0.0
2017-Jan-22 21:31N 51°20' E 003°11'0 0.0
2017-Jan-22 20:31N 51°20' E 003°11'0 0.0
2017-Jan-22 19:31N 51°20' E 003°11'0 0.0
2017-Jan-22 18:33N 51°20' E 003°11'0 0.0
2017-Jan-22 17:30N 51°20' E 003°11'0 0.0
2017-Jan-22 16:33N 51°20' E 003°11'8 8.0
2017-Jan-22 15:34N 51°25' E 003°01'1616.3
2017-Jan-22 14:33N 51°41' E 003°08'1616.3
2017-Jan-22 13:33N 51°55' E 003°20'1413.5
2017-Jan-22 12:33N 52°03' E 003°39'1414.0
2017-Jan-22 11:34N 52°00' E 004°01'5 5.3
2017-Jan-22 10:32N 51°57' E 004°08'0 0.0
2017-Jan-22 09:31N 51°57' E 004°08'0 0.0
2017-Jan-22 08:33N 51°57' E 004°08'6 6.2
2017-Jan-22 07:33N 51°60' E 003°59'1010.3
2017-Jan-22 06:33N 52°03' E 003°43'1515.3
2017-Jan-22 05:33N 52°10' E 003°22'3115.1
2017-Jan-22 03:29N 52°29' E 002°41'1415.3
2017-Jan-22 02:33N 52°37' E 002°22'1515.5
2017-Jan-22 01:33N 52°45' E 001°60'1515.3
2017-Jan-22 00:33N 52°54' E 001°39'1515.2
2017-Jan-21 23:33N 52°60' E 001°16'4615.4
2017-Jan-21 20:33N 53°31' E 000°18'1514.6
2017-Jan-21 19:33N 53°36' W 000°04'1110.8
2017-Jan-21 18:33N 53°44' W 000°16'0 0.1
2017-Jan-21 17:32N 53°45' W 000°16'0 0.0
2017-Jan-21 16:31N 53°45' W 000°16'0 0.0
2017-Jan-21 15:33N 53°45' W 000°16'0 0.0
2017-Jan-21 14:33N 53°45' W 000°16'0 0.0
2017-Jan-21 13:32N 53°45' W 000°16'0 0.0
2017-Jan-21 12:32N 53°45' W 000°16'0 0.0
2017-Jan-21 11:31N 53°45' W 000°16'0 0.0
2017-Jan-21 10:31N 53°45' W 000°16'0 0.0
2017-Jan-21 09:33N 53°45' W 000°16'0 0.0
2017-Jan-21 08:33N 53°45' W 000°16'0 0.2
2017-Jan-21 07:33N 53°44' W 000°17'1111.2
2017-Jan-21 06:33N 53°36' W 000°04'1514.7
2017-Jan-21 05:32N 53°31' E 000°20'2015.2
2017-Jan-21 04:13N 53°23' E 000°51'1616.2
2017-Jan-21 03:13N 53°14' E 001°13'1015.4
2017-Jan-21 02:34N 53°07' E 001°26'1515.4
2017-Jan-21 01:34N 52°59' E 001°48'1616.3
2017-Jan-21 00:33N 52°48' E 002°09'1717.1
2017-Jan-20 23:33N 52°38' E 002°30'1817.6
2017-Jan-20 22:34N 52°27' E 002°53'1817.8
2017-Jan-20 21:33N 52°16' E 003°16'1817.8
2017-Jan-20 20:34N 52°06' E 003°40'1515.1
2017-Jan-20 19:33N 51°60' E 004°03'4 4.4
2017-Jan-20 18:32N 51°57' E 004°08'0 0.0
2017-Jan-20 17:32N 51°57' E 004°08'0 0.0
2017-Jan-20 16:32N 51°57' E 004°08'0 0.0
2017-Jan-20 15:31N 51°57' E 004°08'0 0.0
2017-Jan-20 14:33N 51°57' E 004°08'0 0.0
2017-Jan-20 13:30N 51°57' E 004°08'0 0.0
2017-Jan-20 12:33N 51°57' E 004°08'0 0.0
2017-Jan-20 11:32N 51°57' E 004°08'0 0.0
2017-Jan-20 10:32N 51°57' E 004°08'0 0.0
2017-Jan-20 09:31N 51°57' E 004°08'0 0.0
2017-Jan-20 08:31N 51°57' E 004°08'0 0.0
2017-Jan-20 07:33N 51°57' E 004°08'9 9.2
2017-Jan-20 06:33N 52°00' E 003°54'1413.7
2017-Jan-20 05:34N 52°06' E 003°34'1615.8
2017-Jan-20 04:33N 52°14' E 003°12'1616.3
2017-Jan-20 03:33N 52°23' E 002°49'1717.1
2017-Jan-20 02:33N 52°33' E 002°27'1918.8
2017-Jan-20 01:33N 52°45' E 002°02'1919.5
2017-Jan-20 00:33N 52°54' E 001°34'1919.4
2017-Jan-19 23:34N 53°03' E 001°05'3718.6
2017-Jan-19 21:33N 53°29' E 000°21'1616.3
2017-Jan-19 20:33N 53°36' W 000°03'1111.4
2017-Jan-19 19:33N 53°44' W 000°16'0 0.1
2017-Jan-19 18:32N 53°45' W 000°16'0 0.0
2017-Jan-19 17:31N 53°45' W 000°16'0 0.0
2017-Jan-19 16:31N 53°45' W 000°16'0 0.0
2017-Jan-19 15:33N 53°45' W 000°16'0 0.0
2017-Jan-19 14:33N 53°45' W 000°16'0 0.0
2017-Jan-19 13:33N 53°45' W 000°16'0 0.0
2017-Jan-19 12:13N 53°45' W 000°16'0 0.0
2017-Jan-19 11:31N 53°45' W 000°16'0 0.0
2017-Jan-19 10:32N 53°45' W 000°16'0 0.0
2017-Jan-19 09:32N 53°45' W 000°16'0 0.0
2017-Jan-19 08:32N 53°45' W 000°16'1 1.4
2017-Jan-19 07:34N 53°43' W 000°15'1414.1
2017-Jan-19 06:33N 53°35' E 000°04'4615.1
2017-Jan-19 03:32N 53°15' E 001°13'1717.2
2017-Jan-19 02:33N 53°05' E 001°35'1716.8
2017-Jan-19 01:33N 52°55' E 001°57'1616.0
2017-Jan-19 00:33N 52°43' E 002°16'1916.7
2017-Jan-18 23:23N 52°32' E 002°42'1417.3
2017-Jan-18 22:33N 52°23' E 003°00'1817.7
2017-Jan-18 21:33N 52°12' E 003°23'1717.4
2017-Jan-18 20:34N 52°04' E 003°48'1413.7
2017-Jan-18 19:34N 51°58' E 004°08'1 1.0
2017-Jan-18 18:33N 51°57' E 004°08'0 0.0
2017-Jan-18 17:32N 51°57' E 004°08'0 0.0
2017-Jan-18 16:32N 51°57' E 004°08'0 0.0
2017-Jan-18 15:32N 51°57' E 004°08'0 0.0
2017-Jan-18 14:31N 51°57' E 004°08'0 0.0
2017-Jan-18 13:33N 51°57' E 004°08'0 0.0
2017-Jan-18 12:33N 51°57' E 004°08'0 0.0
2017-Jan-18 11:33N 51°57' E 004°08'0 0.0
2017-Jan-18 10:33N 51°57' E 004°08'0 0.0
2017-Jan-18 09:32N 51°57' E 004°08'0 0.0
2017-Jan-18 08:32N 51°57' E 004°08'0 0.0
2017-Jan-18 07:33N 51°57' E 004°08'10 9.6
2017-Jan-18 06:34N 52°01' E 003°54'1615.7
2017-Jan-18 05:33N 52°07' E 003°30'5516.2
2017-Jan-18 02:08N 52°40' E 002°17'1016.9
2017-Jan-18 01:33N 52°45' E 002°03'1717.3
2017-Jan-18 00:34N 52°52' E 001°37'1817.9
2017-Jan-17 23:33N 53°01' E 001°11'1717.3
2017-Jan-17 22:33N 53°12' E 000°49'3215.9
2017-Jan-17 20:33N 53°33' E 000°09'1413.7
2017-Jan-17 19:33N 53°39' W 000°12'6 5.9
2017-Jan-17 18:34N 53°44' W 000°16'0 0.1
2017-Jan-17 17:32N 53°45' W 000°16'0 0.0
2017-Jan-17 16:32N 53°45' W 000°16'0 0.0
2017-Jan-17 15:32N 53°45' W 000°16'0 0.0
2017-Jan-17 14:31N 53°45' W 000°16'0 0.0
2017-Jan-17 13:31N 53°45' W 000°16'0 0.0
2017-Jan-17 12:33N 53°45' W 000°16'0 0.0
2017-Jan-17 11:33N 53°45' W 000°16'0 0.0
2017-Jan-17 10:32N 53°45' W 000°16'0 0.0
2017-Jan-17 09:32N 53°45' W 000°16'0 0.0
2017-Jan-17 08:33N 53°45' W 000°16'0 0.2
2017-Jan-17 07:33N 53°44' W 000°17'1313.5
2017-Jan-17 06:34N 53°35' E 000°00'4815.8
2017-Jan-17 03:30N 53°12' E 001°12'1718.3
2017-Jan-17 02:33N 53°00' E 001°31'1717.1
2017-Jan-17 01:33N 52°49' E 001°53'4815.8
2017-Jan-16 22:31N 52°22' E 002°59'1616.0
2017-Jan-16 21:31N 52°13' E 003°21'1515.4
2017-Jan-16 20:33N 52°06' E 003°41'1616.3
2017-Jan-16 19:33N 51°59' E 004°05'3 2.5
2017-Jan-16 18:31N 51°57' E 004°08'0 0.0
2017-Jan-16 17:34N 51°57' E 004°08'0 0.0
2017-Jan-16 16:33N 51°57' E 004°08'0 0.0
2017-Jan-16 15:33N 51°57' E 004°08'0 0.0
2017-Jan-16 14:32N 51°57' E 004°08'0 0.0
2017-Jan-16 13:32N 51°57' E 004°08'0 0.0
2017-Jan-16 12:32N 51°57' E 004°08'0 0.0
2017-Jan-16 11:31N 51°57' E 004°08'0 0.0
2017-Jan-16 10:34N 51°57' E 004°08'0 0.0
2017-Jan-16 09:33N 51°57' E 004°08'0 0.0
2017-Jan-16 08:33N 51°57' E 004°08'0 0.0
2017-Jan-16 07:33N 51°57' E 004°08'1111.1
2017-Jan-16 06:34N 52°01' E 003°51'7416.5
2017-Jan-16 02:04N 52°45' E 002°14'917.3
2017-Jan-16 01:33N 52°51' E 002°03'1717.2
2017-Jan-16 00:34N 53°02' E 001°40'1817.8
2017-Jan-15 23:33N 53°12' E 001°16'3816.1
2017-Jan-15 21:12N 53°30' E 000°20'1117.0
2017-Jan-15 20:33N 53°35' E 000°03'1414.2
2017-Jan-15 19:33N 53°43' W 000°15'1 1.3
2017-Jan-15 18:33N 53°45' W 000°16'0 0.0
2017-Jan-15 17:33N 53°45' W 000°16'0 0.0
2017-Jan-15 16:33N 53°45' W 000°16'0 0.0
2017-Jan-15 15:33N 53°45' W 000°16'0 0.0
2017-Jan-15 14:32N 53°45' W 000°16'0 0.0
2017-Jan-15 13:32N 53°45' W 000°16'0 0.0
2017-Jan-15 12:25N 53°45' W 000°16'0 0.0
2017-Jan-15 11:31N 53°45' W 000°16'0 0.0
2017-Jan-15 10:33N 53°45' W 000°16'0 0.0
2017-Jan-15 09:33N 53°45' W 000°16'0 0.2
2017-Jan-15 08:33N 53°44' W 000°17'3 3.3
2017-Jan-15 07:34N 53°42' W 000°14'1313.0
2017-Jan-15 06:33N 53°34' E 000°05'4414.2
2017-Jan-15 03:29N 53°14' E 001°09'1617.7
2017-Jan-15 02:33N 53°01' E 001°27'1918.9
2017-Jan-15 01:34N 52°49' E 001°51'7414.7
2017-Jan-14 20:31N 52°09' E 003°33'1313.8
2017-Jan-14 19:33N 52°04' E 003°53'1111.1
2017-Jan-14 18:33N 51°57' E 004°08'1 0.6
2017-Jan-14 17:33N 51°57' E 004°08'0 0.0
2017-Jan-14 16:32N 51°57' E 004°08'0 0.0
2017-Jan-14 15:31N 51°57' E 004°08'0 0.0
2017-Jan-14 14:31N 51°57' E 004°08'0 0.0
2017-Jan-14 13:31N 51°57' E 004°08'0 0.0
2017-Jan-14 12:33N 51°57' E 004°08'0 0.0
2017-Jan-14 11:33N 51°57' E 004°08'0 0.0
2017-Jan-14 10:33N 51°57' E 004°08'0 0.0
2017-Jan-14 09:32N 51°57' E 004°08'0 0.0
2017-Jan-14 08:31N 51°57' E 004°08'1 1.2
2017-Jan-14 07:33N 51°58' E 004°08'1212.3
2017-Jan-14 06:33N 52°02' E 003°49'10214.6
2017-Jan-13 23:33N 52°56' E 001°27'1616.0
2017-Jan-13 22:33N 53°04' E 001°03'3716.5
2017-Jan-13 20:20N 53°30' E 000°20'1215.0
2017-Jan-13 19:34N 53°35' E 000°02'1514.6
2017-Jan-13 18:33N 53°44' W 000°17'0 0.2
2017-Jan-13 17:32N 53°45' W 000°16'0 0.0
2017-Jan-13 16:31N 53°45' W 000°16'  

Dump ship's entire track history